UKLR

Rivne International Airport

Rivne, Ukraine
TAF UKLR 210804Z 2109/2118 28005G10MPS 9999 BKN013 SCT020CB TX25/2112Z TN20/2118Z TEMPO 2109/2118 31007G12MPS 2100 -SHRA BKN010 BKN013CB PROB40 TEMPO 2110/2118 -TSRA
Issued Valid From Valid To
Jul-21 @ 08:04 UTC
(2 hours ago)
Jul-21 @ 09:00 UTC
(58 minutes ago)
Jul-21 @ 18:00 UTC
(in 8 hours)
Jul-21 @ 09:00 to Jul-21 @ 18:00
TAF UKLR 210804Z 2109/2118 28005G10MPS 9999 BKN013 SCT020CB TX25/2112Z TN20/2118Z
Wind Visibility Clouds
280° at 10 knots
 Gusting to 19 knots
10,000+ meters
  • Broken at 1,300' AGL
  • Scattered at 2,000' AGL
Temporary Jul-21 @ 09:00 to Jul-21 @ 18:00
TEMPO 2109/2118 31007G12MPS 2100 -SHRA BKN010 BKN013CB
Wind Visibility Clouds Conditions
310° at 14 knots
 Gusting to 23 knots
2,092 meters
  • Broken at 1,000' AGL
  • Broken at 1,300' AGL
  • Light Rain
Temporary  (Probability 40%) Jul-21 @ 10:00 to Jul-21 @ 18:00
PROB40 TEMPO 2110/2118 -TSRA
Conditions
  • Light Thunderstorm
  • Light Rain
TAF UKLR 210804Z 2109/2118 28005G10MPS 9999 BKN013 SCT020CB TX25/2112Z TN20/2118Z TEMPO 2109/2118 31007G12MPS 2100 -SHRA BKN010 BKN013CB PROB40 TEMPO 2110/2118 -TSRA
Issued Jul-21 @ 08:04 UTC
(2 hours ago)
Valid From Jul-21 @ 09:00 UTC
(58 minutes ago)
Valid To Jul-21 @ 18:00 UTC
(in 8 hours)
Jul-21 @ 09:00 - Jul-21 @ 18:00
Wind Visibility
280° at 10 knots
 Gusting to 19 knots
10,000+ meters
Clouds
  • Broken at 1,300' AGL
  • Scattered at 2,000' AGL
Temporary Jul-21 @ 09:00 - Jul-21 @ 18:00
Wind Visibility
310° at 14 knots
 Gusting to 23 knots
2,092 meters
Clouds
  • Broken at 1,000' AGL
  • Broken at 1,300' AGL
Conditions
  • Light Rain
Probability 40% Temporary Jul-21 @ 10:00 - Jul-21 @ 18:00
Conditions
  • Light Thunderstorm
  • Light Rain